Plain View, Virginia
Current Conditions -  °F | °C
As of 2:15 PM on Thursday 30 Oct 2014 (Local Time) from KFYJ Reporting Station
Clear Clear  
Wind Chill: 65°   Ceiling: Unl
Heat Index: 65°   Visibility: 10mi
Dew Point: 37°   Wind: 8mph
Humidity: 35%   Direction: 320°NW
Pressure: 30.03"   Gusts: NA
Location:  37.5357°N, 76.7136°W
Report Text: KFYJ 301815Z AUTO 32007KT 10SM CLR 18/03 A3003 RMK AO2 T01830026
Loading
Personal Weather Stations






























Interactive Weather Map
Tropical Storm Tracking
New forecast layout! Learn more

10-Day Weather Forecast

Advertisements
Track Severe Weather on mobile